createdAt,value
2018-11-25T00:00:12.262Z,7.13
2018-11-25T00:02:40.453Z,33.80
2018-11-25T00:05:09.326Z,19.40
2018-11-25T00:07:37.513Z,11.00
2018-11-25T00:10:06.512Z,14.60
2018-11-25T00:12:34.989Z,31.33
2018-11-25T00:15:03.251Z,8.60
2018-11-25T00:17:31.435Z,11.07
2018-11-25T00:19:59.652Z,10.73
2018-11-25T00:22:27.892Z,11.90
2018-11-25T00:24:56.132Z,11.63
2018-11-25T00:27:24.442Z,9.30
2018-11-25T00:29:52.710Z,11.67
2018-11-25T00:32:22.595Z,14.87
2018-11-25T00:34:50.859Z,10.57
2018-11-25T00:37:19.078Z,11.73
2018-11-25T00:39:47.401Z,11.50
2018-11-25T00:42:15.600Z,9.73
2018-11-25T00:44:43.794Z,9.77
2018-11-25T00:47:11.978Z,10.27
2018-11-25T00:49:40.154Z,10.97
2018-11-25T00:52:08.384Z,11.03
2018-11-25T00:54:36.593Z,14.00
2018-11-25T00:57:05.050Z,11.77
2018-11-25T00:59:33.352Z,9.10
2018-11-25T01:02:01.602Z,15.00
2018-11-25T01:04:29.808Z,10.07
2018-11-25T01:06:58.052Z,12.07
2018-11-25T01:09:26.266Z,10.57
2018-11-25T01:11:54.523Z,12.13
2018-11-25T01:14:22.763Z,11.30
2018-11-25T01:16:50.977Z,10.03
2018-11-25T01:19:19.254Z,11.93
2018-11-25T01:21:48.339Z,9.47
2018-11-25T01:24:16.550Z,10.43
2018-11-25T01:26:44.774Z,12.37
2018-11-25T01:29:12.959Z,9.67
2018-11-25T01:31:41.167Z,9.67
2018-11-25T01:34:09.354Z,10.63
2018-11-25T01:36:37.588Z,9.17
2018-11-25T01:39:06.805Z,8.90
2018-11-25T01:41:35.080Z,7.23
2018-11-25T01:44:03.625Z,10.00
2018-11-25T01:46:31.868Z,6.73
2018-11-25T01:49:00.090Z,8.47
2018-11-25T01:51:28.285Z,10.13
2018-11-25T01:53:56.501Z,7.50
2018-11-25T01:56:24.710Z,8.23
2018-11-25T01:58:52.894Z,8.17
2018-11-25T02:01:21.079Z,9.57
2018-11-25T02:03:49.336Z,7.90
2018-11-25T02:06:17.517Z,7.13
2018-11-25T02:08:45.690Z,8.17
2018-11-25T02:11:13.912Z,8.83
2018-11-25T02:13:42.141Z,9.80
2018-11-25T02:16:10.328Z,8.67
2018-11-25T02:18:38.530Z,6.73
2018-11-25T02:21:06.753Z,8.63
2018-11-25T02:23:34.958Z,7.03
2018-11-25T02:26:03.140Z,8.23
2018-11-25T02:28:31.378Z,6.23
2018-11-25T02:30:59.631Z,6.73
2018-11-25T02:33:27.828Z,8.10
2018-11-25T02:35:56.026Z,7.27
2018-11-25T02:38:24.211Z,8.07
2018-11-25T02:40:52.404Z,9.50
2018-11-25T02:43:20.598Z,6.53
2018-11-25T02:45:48.805Z,6.43
2018-11-25T02:48:17.002Z,8.80
2018-11-25T02:50:45.271Z,6.73
2018-11-25T02:53:13.501Z,6.70
2018-11-25T02:55:41.846Z,5.27
2018-11-25T02:58:10.034Z,7.27
2018-11-25T03:00:38.281Z,6.97
2018-11-25T03:03:06.469Z,6.53
2018-11-25T03:05:34.665Z,6.30
2018-11-25T03:08:02.902Z,6.77
2018-11-25T03:10:31.122Z,7.37
2018-11-25T03:12:59.350Z,6.47
2018-11-25T03:15:27.542Z,7.23
2018-11-25T03:17:55.740Z,6.27
2018-11-25T03:20:23.974Z,6.43
2018-11-25T03:22:52.147Z,6.80
2018-11-25T03:25:20.963Z,7.73
2018-11-25T03:27:49.230Z,6.20
2018-11-25T03:30:19.205Z,7.90
2018-11-25T03:32:48.446Z,10.70
2018-11-25T03:35:16.704Z,10.70
2018-11-25T03:37:44.882Z,7.40
2018-11-25T03:40:13.922Z,6.77
2018-11-25T03:42:42.148Z,7.57
2018-11-25T03:45:13.258Z,5.80
2018-11-25T03:47:41.466Z,9.03
2018-11-25T03:50:10.508Z,7.30
2018-11-25T03:52:38.733Z,6.67
2018-11-25T03:55:09.800Z,5.70
2018-11-25T03:57:38.022Z,6.50
2018-11-25T04:00:21.655Z,7.50
2018-11-25T04:02:50.902Z,6.40
2018-11-25T04:05:19.158Z,6.40
2018-11-25T04:07:47.342Z,7.23
2018-11-25T04:10:16.481Z,6.87
2018-11-25T04:12:44.707Z,8.33
2018-11-25T04:15:14.821Z,8.60
2018-11-25T04:17:43.156Z,6.80
2018-11-25T04:20:12.552Z,6.83
2018-11-25T04:22:40.778Z,10.17
2018-11-25T04:25:09.905Z,7.67
2018-11-25T04:27:38.155Z,9.33
2018-11-25T04:30:10.206Z,10.27
2018-11-25T04:32:38.397Z,9.87
2018-11-25T04:35:07.939Z,10.43
2018-11-25T04:37:36.139Z,9.37
2018-11-25T04:40:04.796Z,9.00
2018-11-25T04:42:33.266Z,8.17
2018-11-25T04:45:01.480Z,7.93
2018-11-25T04:47:29.698Z,7.67
2018-11-25T04:49:57.870Z,10.10
2018-11-25T04:52:26.055Z,6.73
2018-11-25T04:54:54.284Z,7.77
2018-11-25T04:57:22.505Z,6.90
2018-11-25T04:59:50.711Z,9.23
2018-11-25T05:02:18.925Z,7.77
2018-11-25T05:04:47.190Z,10.30
2018-11-25T05:07:15.406Z,7.33
2018-11-25T05:09:43.653Z,7.57
2018-11-25T05:12:11.872Z,8.03
2018-11-25T05:14:40.062Z,6.57
2018-11-25T05:17:08.302Z,8.37
2018-11-25T05:19:36.527Z,6.70
2018-11-25T05:22:04.754Z,6.97
2018-11-25T05:24:32.980Z,7.27
2018-11-25T05:27:01.203Z,8.17
2018-11-25T05:29:29.416Z,7.80
2018-11-25T05:31:57.637Z,9.13
2018-11-25T05:34:25.826Z,8.27
2018-11-25T05:36:54.051Z,7.87
2018-11-25T05:39:22.253Z,8.00
2018-11-25T05:41:50.473Z,8.50
2018-11-25T05:44:18.662Z,7.20
2018-11-25T05:46:46.886Z,9.23
2018-11-25T05:49:15.061Z,8.33
2018-11-25T05:51:43.337Z,11.00
2018-11-25T05:54:11.599Z,10.30
2018-11-25T05:56:39.892Z,10.00
2018-11-25T05:59:08.139Z,10.67
2018-11-25T06:01:36.359Z,10.53
2018-11-25T06:04:04.618Z,10.13
2018-11-25T06:06:32.810Z,9.30
2018-11-25T06:09:01.043Z,10.27
2018-11-25T06:11:29.322Z,10.87
2018-11-25T06:13:57.580Z,12.10
2018-11-25T06:16:25.822Z,10.17
2018-11-25T06:18:54.121Z,11.93
2018-11-25T06:21:22.338Z,11.27
2018-11-25T06:23:50.583Z,14.07
2018-11-25T06:26:18.773Z,9.87
2018-11-25T06:28:46.959Z,8.37
2018-11-25T06:31:15.223Z,9.40
2018-11-25T06:33:43.408Z,10.07
2018-11-25T06:36:11.674Z,9.93
2018-11-25T06:38:39.870Z,12.00
2018-11-25T06:41:08.077Z,13.57
2018-11-25T06:43:36.282Z,13.40
2018-11-25T06:46:07.158Z,13.80
2018-11-25T06:48:35.400Z,12.97
2018-11-25T06:51:03.624Z,28.07
2018-11-25T06:53:31.862Z,18.07
2018-11-25T06:56:00.118Z,16.83
2018-11-25T06:58:29.031Z,18.80
2018-11-25T07:00:57.197Z,13.03
2018-11-25T07:03:25.394Z,13.87
2018-11-25T07:05:53.632Z,15.60
2018-11-25T07:08:21.849Z,10.73
2018-11-25T07:10:50.098Z,9.60
2018-11-25T07:13:18.371Z,9.33
2018-11-25T07:15:46.582Z,12.47
2018-11-25T07:18:14.815Z,9.63
2018-11-25T07:20:43.094Z,8.40
2018-11-25T07:23:11.287Z,8.40
2018-11-25T07:25:39.474Z,9.03
2018-11-25T07:28:18.127Z,8.17
2018-11-25T07:30:35.986Z,6.40
2018-11-25T07:33:04.274Z,7.67
2018-11-25T07:35:32.542Z,5.90
2018-11-25T07:38:00.751Z,6.53
2018-11-25T07:40:29.130Z,6.37
2018-11-25T07:42:57.416Z,5.80
2018-11-25T07:45:30.442Z,8.77
2018-11-25T07:47:54.357Z,6.80
2018-11-25T07:50:22.641Z,7.57
2018-11-25T07:52:51.434Z,6.53
2018-11-25T07:55:20.702Z,5.77
2018-11-25T07:57:49.587Z,6.87
2018-11-25T08:00:18.915Z,5.47
2018-11-25T08:02:47.100Z,5.77
2018-11-25T08:05:16.578Z,5.13
2018-11-25T08:07:44.878Z,8.03
2018-11-25T08:10:16.289Z,6.33
2018-11-25T08:12:45.003Z,6.67
2018-11-25T08:15:14.885Z,8.30
2018-11-25T08:17:43.074Z,7.13
2018-11-25T08:20:12.205Z,8.10
2018-11-25T08:22:40.444Z,10.13
2018-11-25T08:25:12.430Z,10.43
2018-11-25T08:27:40.614Z,9.60
2018-11-25T08:30:12.262Z,8.73
2018-11-25T08:32:40.457Z,9.73
2018-11-25T08:35:09.447Z,7.10
2018-11-25T08:37:37.846Z,8.17
2018-11-25T08:40:09.987Z,9.37
2018-11-25T08:42:38.258Z,8.17
2018-11-25T08:45:07.947Z,16.20
2018-11-25T08:47:36.127Z,9.83
2018-11-25T08:50:05.143Z,11.60
2018-11-25T08:52:33.383Z,7.70
2018-11-25T08:55:01.596Z,7.77
2018-11-25T08:57:29.834Z,12.03
2018-11-25T08:59:58.138Z,7.63
2018-11-25T09:02:26.426Z,6.33
2018-11-25T09:04:54.656Z,7.57
2018-11-25T09:07:22.874Z,8.43
2018-11-25T09:09:51.111Z,8.30
2018-11-25T09:12:19.324Z,8.23
2018-11-25T09:14:47.519Z,7.93
2018-11-25T09:17:15.787Z,8.03
2018-11-25T09:19:44.021Z,9.03
2018-11-25T09:22:12.295Z,15.10
2018-11-25T09:24:40.602Z,9.93
2018-11-25T09:27:08.873Z,8.53
2018-11-25T09:29:37.160Z,9.07
2018-11-25T09:32:06.148Z,9.23
2018-11-25T09:34:34.402Z,10.07
2018-11-25T09:37:02.687Z,11.87
2018-11-25T09:39:30.983Z,10.23
2018-11-25T09:41:59.206Z,9.50
2018-11-25T09:44:27.414Z,8.60
2018-11-25T09:46:55.609Z,9.10
2018-11-25T09:49:23.938Z,9.93
2018-11-25T09:51:52.143Z,11.63
2018-11-25T09:54:20.389Z,9.00
2018-11-25T09:56:48.587Z,8.87
2018-11-25T09:59:16.858Z,10.40
2018-11-25T10:01:45.085Z,8.63
2018-11-25T10:04:13.302Z,10.00
2018-11-25T10:06:41.504Z,12.40
2018-11-25T10:09:09.723Z,11.70
2018-11-25T10:11:37.926Z,13.67
2018-11-25T10:14:06.131Z,12.93
2018-11-25T10:16:34.374Z,12.97
2018-11-25T10:19:02.645Z,12.90
2018-11-25T10:21:30.835Z,12.90
2018-11-25T10:23:59.053Z,11.77
2018-11-25T10:26:27.274Z,14.10
2018-11-25T10:28:55.498Z,13.53
2018-11-25T10:31:23.756Z,13.53
2018-11-25T10:33:52.154Z,15.47
2018-11-25T10:36:20.379Z,15.73
2018-11-25T10:38:48.582Z,13.83
2018-11-25T10:41:16.806Z,15.77
2018-11-25T10:43:45.082Z,13.67
2018-11-25T10:46:13.422Z,13.97
2018-11-25T10:48:41.632Z,14.77
2018-11-25T10:51:09.873Z,13.17
2018-11-25T10:53:38.391Z,13.87
2018-11-25T10:56:06.700Z,13.57
2018-11-25T10:58:34.901Z,15.07
2018-11-25T11:01:08.454Z,14.70
2018-11-25T11:03:42.265Z,12.60
2018-11-25T11:06:15.945Z,13.53
2018-11-25T11:08:44.158Z,14.27
2018-11-25T11:11:12.485Z,15.17
2018-11-25T11:13:40.712Z,14.57
2018-11-25T11:16:09.002Z,16.83
2018-11-25T11:18:37.232Z,13.37
2018-11-25T11:21:05.554Z,13.53
2018-11-25T11:23:33.777Z,17.83
2018-11-25T11:26:06.648Z,13.97
2018-11-25T11:28:30.271Z,17.07
2018-11-25T11:30:58.466Z,15.23
2018-11-25T11:33:26.688Z,15.40
2018-11-25T11:35:54.907Z,15.47
2018-11-25T11:38:23.250Z,15.50
2018-11-25T11:40:51.458Z,12.60
2018-11-25T11:43:19.662Z,14.43
2018-11-25T11:45:47.910Z,17.83
2018-11-25T11:48:16.088Z,14.80
2018-11-25T11:50:44.286Z,18.60
2018-11-25T11:53:12.487Z,21.17
2018-11-25T11:55:40.718Z,20.30
2018-11-25T11:58:08.958Z,26.37
2018-11-25T12:00:37.162Z,21.33
2018-11-25T12:03:05.751Z,21.50
2018-11-25T12:05:34.071Z,23.77
2018-11-25T12:08:02.297Z,25.20
2018-11-25T12:10:30.482Z,28.93
2018-11-25T12:12:58.717Z,25.83
2018-11-25T12:15:31.100Z,27.83
2018-11-25T12:17:58.398Z,26.60
2018-11-25T12:20:27.670Z,25.33
2018-11-25T12:22:56.417Z,26.33
2018-11-25T12:25:24.730Z,24.13
2018-11-25T12:27:53.370Z,25.00
2018-11-25T12:30:21.831Z,24.83
2018-11-25T12:32:50.998Z,28.23
2018-11-25T12:35:19.327Z,29.10
2018-11-25T12:37:47.854Z,27.37
2018-11-25T12:40:17.420Z,26.83
2018-11-25T12:42:47.948Z,26.70
2018-11-25T12:45:16.986Z,27.40
2018-11-25T12:47:45.214Z,25.43
2018-11-25T12:50:14.578Z,30.40
2018-11-25T12:52:42.809Z,25.97
2018-11-25T12:55:14.245Z,25.00
2018-11-25T12:57:42.469Z,27.90
2018-11-25T13:00:22.318Z,29.17
2018-11-25T13:02:50.601Z,27.70
2018-11-25T13:05:18.867Z,26.93
2018-11-25T13:07:47.123Z,30.10
2018-11-25T13:10:15.385Z,26.87
2018-11-25T13:12:43.983Z,28.63
2018-11-25T13:15:12.346Z,24.57
2018-11-25T13:17:40.614Z,30.60
2018-11-25T13:20:11.788Z,25.50
2018-11-25T13:22:40.271Z,27.50
2018-11-25T13:25:11.331Z,28.27
2018-11-25T13:27:39.583Z,29.13
2018-11-25T13:30:16.279Z,29.60
2018-11-25T13:32:44.834Z,27.77
2018-11-25T13:35:13.091Z,30.70
2018-11-25T13:37:41.419Z,28.93
2018-11-25T13:40:11.028Z,28.83
2018-11-25T13:42:39.345Z,29.27
2018-11-25T13:45:06.588Z,28.00
2018-11-25T13:47:34.799Z,29.90
2018-11-25T13:50:03.077Z,28.03
2018-11-25T13:52:31.368Z,30.37
2018-11-25T13:54:59.610Z,30.43
2018-11-25T13:57:27.819Z,33.47
2018-11-25T13:59:56.166Z,31.80
2018-11-25T14:02:24.437Z,35.83
2018-11-25T14:04:52.734Z,34.67
2018-11-25T14:07:21.033Z,35.53
2018-11-25T14:09:49.956Z,36.07
2018-11-25T14:12:18.401Z,34.77
2018-11-25T14:14:46.647Z,38.53
2018-11-25T14:17:14.872Z,37.27
2018-11-25T14:19:43.148Z,36.33
2018-11-25T14:22:11.362Z,42.27
2018-11-25T14:24:39.580Z,40.30
2018-11-25T14:27:08.979Z,40.23
2018-11-25T14:29:37.226Z,39.17
2018-11-25T14:32:05.887Z,41.77
2018-11-25T14:34:34.143Z,40.83
2018-11-25T14:37:02.390Z,42.67
2018-11-25T14:39:30.643Z,44.63
2018-11-25T14:41:58.942Z,42.70
2018-11-25T14:44:27.194Z,38.10
2018-11-25T14:46:55.483Z,39.73
2018-11-25T14:49:23.746Z,45.33
2018-11-25T14:51:52.034Z,71.67
2018-11-25T14:54:20.316Z,65.50
2018-11-25T14:56:48.598Z,64.03
2018-11-25T14:59:16.874Z,43.97
2018-11-25T15:01:45.134Z,51.33
2018-11-25T15:04:13.410Z,56.67
2018-11-25T15:06:41.704Z,44.53
2018-11-25T15:09:10.916Z,62.10
2018-11-25T15:11:39.233Z,43.20
2018-11-25T15:14:08.180Z,50.63
2018-11-25T15:16:36.856Z,53.73
2018-11-25T15:19:06.108Z,41.47
2018-11-25T15:21:34.329Z,38.80
2018-11-25T15:24:02.615Z,35.57
2018-11-25T15:26:31.004Z,36.53
2018-11-25T15:28:59.286Z,41.97
2018-11-25T15:31:27.542Z,37.80
2018-11-25T15:33:55.827Z,34.13
2018-11-25T15:36:24.065Z,37.40
2018-11-25T15:38:52.366Z,31.97
2018-11-25T15:41:20.540Z,34.27
2018-11-25T15:43:48.820Z,38.00
2018-11-25T15:46:17.043Z,37.93
2018-11-25T15:48:45.342Z,43.13
2018-11-25T15:51:13.542Z,37.30
2018-11-25T15:53:41.784Z,38.00
2018-11-25T15:56:10.409Z,41.80
2018-11-25T15:58:38.651Z,41.80
2018-11-25T16:01:06.845Z,38.57
2018-11-25T16:03:35.136Z,37.47
2018-11-25T16:06:10.335Z,41.90
2018-11-25T16:08:38.652Z,43.23
2018-11-25T16:11:06.927Z,40.03
2018-11-25T16:13:35.379Z,42.90
2018-11-25T16:16:03.583Z,39.77
2018-11-25T16:18:31.852Z,38.70
2018-11-25T16:21:00.127Z,42.63
2018-11-25T16:23:28.456Z,41.23
2018-11-25T16:25:58.934Z,42.87
2018-11-25T16:28:35.361Z,43.07
2018-11-25T16:31:03.554Z,38.30
2018-11-25T16:33:31.778Z,38.90
2018-11-25T16:36:00.027Z,38.17
2018-11-25T16:38:28.406Z,35.90
2018-11-25T16:40:56.630Z,41.23
2018-11-25T16:43:24.864Z,37.67
2018-11-25T16:45:53.102Z,38.03
2018-11-25T16:48:21.421Z,34.23
2018-11-25T16:50:49.749Z,40.27
2018-11-25T16:53:17.973Z,38.70
2018-11-25T16:55:46.226Z,32.37
2018-11-25T16:58:14.505Z,36.50
2018-11-25T17:00:42.778Z,36.50
2018-11-25T17:03:11.055Z,38.63
2018-11-25T17:05:42.065Z,38.57
2018-11-25T17:08:14.600Z,35.57
2018-11-25T17:10:42.938Z,36.27
2018-11-25T17:13:11.198Z,34.43
2018-11-25T17:15:39.411Z,36.00
2018-11-25T17:18:07.647Z,37.17
2018-11-25T17:20:35.907Z,37.20
2018-11-25T17:23:04.134Z,34.83
2018-11-25T17:25:32.386Z,34.73
2018-11-25T17:28:00.598Z,35.17
2018-11-25T17:30:28.838Z,32.97
2018-11-25T17:32:57.037Z,35.23
2018-11-25T17:35:27.895Z,33.00
2018-11-25T17:37:56.062Z,34.70
2018-11-25T17:40:24.339Z,33.23
2018-11-25T17:42:52.791Z,37.97
2018-11-25T17:45:21.092Z,36.47
2018-11-25T17:47:49.378Z,38.07
2018-11-25T17:50:20.065Z,33.03
2018-11-25T17:52:48.724Z,33.97
2018-11-25T17:55:17.557Z,34.43
2018-11-25T17:57:45.834Z,32.87
2018-11-25T18:00:31.327Z,33.10
2018-11-25T18:02:59.603Z,35.27
2018-11-25T18:05:27.849Z,34.03
2018-11-25T18:07:56.142Z,32.17
2018-11-25T18:10:24.373Z,34.37
2018-11-25T18:12:52.790Z,31.73
2018-11-25T18:15:21.598Z,32.00
2018-11-25T18:17:54.071Z,32.83
2018-11-25T18:20:22.978Z,34.97
2018-11-25T18:22:51.290Z,34.17
2018-11-25T18:25:19.515Z,35.33
2018-11-25T18:27:47.774Z,36.27
2018-11-25T18:30:17.036Z,38.17
2018-11-25T18:32:45.688Z,32.83
2018-11-25T18:35:13.932Z,34.50
2018-11-25T18:37:42.226Z,33.27
2018-11-25T18:40:12.791Z,49.03
2018-11-25T18:42:41.598Z,38.17
2018-11-25T18:45:11.448Z,39.23
2018-11-25T18:47:39.770Z,36.50
2018-11-25T18:50:10.146Z,36.67
2018-11-25T18:52:38.386Z,42.13
2018-11-25T18:55:05.597Z,38.97
2018-11-25T18:57:33.894Z,37.90
2018-11-25T19:00:02.140Z,31.93
2018-11-25T19:02:41.417Z,34.27
2018-11-25T19:05:09.834Z,33.40
2018-11-25T19:07:38.065Z,36.97
2018-11-25T19:10:14.430Z,36.60
2018-11-25T19:12:44.155Z,34.63
2018-11-25T19:15:12.413Z,34.07
2018-11-25T19:17:40.762Z,36.67
2018-11-25T19:20:13.282Z,34.07
2018-11-25T19:22:42.211Z,33.90
2018-11-25T19:25:11.849Z,36.17
2018-11-25T19:27:40.094Z,37.67
2018-11-25T19:30:11.699Z,38.27
2018-11-25T19:32:40.544Z,33.30
2018-11-25T19:35:11.054Z,39.30
2018-11-25T19:37:39.490Z,39.87
2018-11-25T19:40:14.075Z,39.13
2018-11-25T19:42:42.657Z,36.57
2018-11-25T19:45:12.746Z,37.90
2018-11-25T19:47:41.951Z,37.20
2018-11-25T19:50:16.890Z,40.27
2018-11-25T19:52:45.094Z,38.17
2018-11-25T19:55:13.384Z,39.90
2018-11-25T19:57:41.651Z,37.60
2018-11-25T20:00:12.297Z,38.50
2018-11-25T20:02:40.518Z,36.20
2018-11-25T20:05:10.566Z,33.43
2018-11-25T20:07:38.947Z,39.03
2018-11-25T20:10:10.302Z,37.53
2018-11-25T20:12:39.691Z,35.57
2018-11-25T20:15:09.918Z,35.47
2018-11-25T20:17:38.206Z,37.93
2018-11-25T20:20:09.649Z,36.60
2018-11-25T20:22:37.860Z,34.07
2018-11-25T20:25:08.528Z,34.40
2018-11-25T20:27:38.471Z,40.00
2018-11-25T20:30:10.383Z,38.50
2018-11-25T20:32:44.056Z,36.13
2018-11-25T20:35:12.466Z,35.70
2018-11-25T20:37:46.134Z,38.90
2018-11-25T20:40:14.392Z,36.37
2018-11-25T20:42:42.638Z,36.13
2018-11-25T20:45:17.323Z,38.93
2018-11-25T20:47:45.971Z,36.20
2018-11-25T20:50:14.199Z,33.93
2018-11-25T20:52:48.014Z,32.90
2018-11-25T20:55:16.235Z,32.43
2018-11-25T20:57:44.462Z,33.00
2018-11-25T21:00:15.140Z,35.27
2018-11-25T21:02:43.833Z,34.10
2018-11-25T21:05:12.988Z,33.87
2018-11-25T21:07:41.194Z,35.37
2018-11-25T21:10:14.690Z,38.20
2018-11-25T21:12:45.095Z,38.73
2018-11-25T21:15:13.270Z,38.70
2018-11-25T21:17:41.456Z,42.70
2018-11-25T21:20:11.975Z,41.47
2018-11-25T21:22:40.245Z,41.17
2018-11-25T21:25:11.383Z,37.07
2018-11-25T21:27:39.710Z,38.80
2018-11-25T21:30:15.026Z,37.10
2018-11-25T21:32:43.682Z,38.03
2018-11-25T21:35:12.741Z,41.00
2018-11-25T21:37:41.010Z,38.47
2018-11-25T21:40:18.062Z,42.60
2018-11-25T21:42:46.267Z,39.67
2018-11-25T21:45:15.610Z,43.73
2018-11-25T21:47:43.901Z,41.93
2018-11-25T21:50:19.464Z,39.27
2018-11-25T21:52:47.810Z,41.83
2018-11-25T21:55:17.097Z,42.63
2018-11-25T21:57:45.415Z,44.87
2018-11-25T22:00:15.730Z,40.53
2018-11-25T22:02:44.034Z,41.40
2018-11-25T22:05:12.983Z,40.43
2018-11-25T22:07:41.309Z,37.10
2018-11-25T22:10:10.619Z,35.00
2018-11-25T22:12:39.633Z,36.60
2018-11-25T22:15:17.686Z,30.03
2018-11-25T22:17:45.940Z,35.97
2018-11-25T22:20:14.853Z,33.17
2018-11-25T22:22:43.124Z,34.47
2018-11-25T22:25:12.446Z,33.27
2018-11-25T22:27:40.676Z,34.23
2018-11-25T22:30:24.042Z,35.33
2018-11-25T22:32:52.313Z,35.33
2018-11-25T22:35:21.710Z,32.37
2018-11-25T22:37:49.902Z,33.67
2018-11-25T22:40:18.695Z,35.97
2018-11-25T22:42:47.779Z,33.67
2018-11-25T22:45:17.088Z,32.07
2018-11-25T22:47:45.366Z,34.97
2018-11-25T22:50:16.446Z,32.73
2018-11-25T22:52:44.890Z,34.10
2018-11-25T22:55:14.394Z,34.37
2018-11-25T22:57:42.671Z,35.00
2018-11-25T23:00:23.061Z,32.93
2018-11-25T23:02:51.271Z,33.23
2018-11-25T23:05:30.729Z,34.93
2018-11-25T23:07:58.970Z,33.37
2018-11-25T23:10:27.178Z,35.10
2018-11-25T23:12:55.382Z,33.73
2018-11-25T23:15:23.630Z,32.70
2018-11-25T23:17:52.523Z,32.97
2018-11-25T23:20:20.769Z,34.33
2018-11-25T23:22:48.975Z,34.67
2018-11-25T23:25:17.296Z,35.07
2018-11-25T23:27:45.503Z,30.93
2018-11-25T23:30:13.704Z,32.93
2018-11-25T23:32:42.195Z,31.93
2018-11-25T23:35:15.390Z,32.30
2018-11-25T23:37:43.591Z,33.70
2018-11-25T23:40:11.880Z,35.70
2018-11-25T23:42:40.327Z,33.43
2018-11-25T23:45:11.254Z,31.30
2018-11-25T23:47:39.576Z,34.30
2018-11-25T23:50:09.318Z,34.13
2018-11-25T23:52:37.682Z,31.70
2018-11-25T23:55:08.229Z,35.03
2018-11-25T23:57:36.525Z,32.13
